sensor_id;sensor_type;location;lat;lon;timestamp;temperature;humidity
5286;DHT22;2665;53.112;7.358;2023-04-30T03:54:56;3.40;99.90
5286;DHT22;2665;53.112;7.358;2023-04-30T03:57:21;3.20;1.00
5286;DHT22;2665;53.112;7.358;2023-04-30T03:59:48;3.20;1.00
5286;DHT22;2665;53.112;7.358;2023-04-30T04:02:14;3.10;1.00
5286;DHT22;2665;53.112;7.358;2023-04-30T04:04:40;3.10;1.00
5286;DHT22;2665;53.112;7.358;2023-04-30T04:07:05;3.10;1.00
5286;DHT22;2665;53.112;7.358;2023-04-30T04:09:34;3.10;99.90
5286;DHT22;2665;53.112;7.358;2023-04-30T04:11:59;3.10;99.90
5286;DHT22;2665;53.112;7.358;2023-04-30T04:14:26;3.00;1.00
5286;DHT22;2665;53.112;7.358;2023-04-30T04:16:51;3.00;99.90
5286;DHT22;2665;53.112;7.358;2023-04-30T04:19:17;2.90;99.90
5286;DHT22;2665;53.112;7.358;2023-04-30T04:21:42;2.90;1.00
5286;DHT22;2665;53.112;7.358;2023-04-30T04:24:08;2.80;1.00
5286;DHT22;2665;53.112;7.358;2023-04-30T04:26:35;2.70;1.00
5286;DHT22;2665;53.112;7.358;2023-04-30T04:29:01;2.70;99.90
5286;DHT22;2665;53.112;7.358;2023-04-30T04:31:28;2.60;1.00
5286;DHT22;2665;53.112;7.358;2023-04-30T04:33:54;2.60;1.00
5286;DHT22;2665;53.112;7.358;2023-04-30T04:36:27;2.60;99.90
5286;DHT22;2665;53.112;7.358;2023-04-30T04:38:56;2.60;99.90
5286;DHT22;2665;53.112;7.358;2023-04-30T04:41:29;2.60;99.90
5286;DHT22;2665;53.112;7.358;2023-04-30T04:43:55;2.60;99.90
5286;DHT22;2665;53.112;7.358;2023-04-30T04:46:24;2.60;99.90
5286;DHT22;2665;53.112;7.358;2023-04-30T04:48:50;2.60;1.00
5286;DHT22;2665;53.112;7.358;2023-04-30T04:51:16;2.60;99.90
5286;DHT22;2665;53.112;7.358;2023-04-30T04:53:42;2.70;1.00
5286;DHT22;2665;53.112;7.358;2023-04-30T04:56:07;2.80;1.00
5286;DHT22;2665;53.112;7.358;2023-04-30T04:58:33;2.80;1.00
5286;DHT22;2665;53.112;7.358;2023-04-30T05:00:59;2.90;1.00
5286;DHT22;2665;53.112;7.358;2023-04-30T05:03:26;3.00;1.00
5286;DHT22;2665;53.112;7.358;2023-04-30T05:05:52;3.10;1.00
5286;DHT22;2665;53.112;7.358;2023-04-30T05:08:18;3.10;1.00
5286;DHT22;2665;53.112;7.358;2023-04-30T05:10:43;3.20;1.00
5286;DHT22;2665;53.112;7.358;2023-04-30T05:13:09;3.30;1.00
5286;DHT22;2665;53.112;7.358;2023-04-30T05:15:35;3.30;1.00
5286;DHT22;2665;53.112;7.358;2023-04-30T05:18:01;3.40;1.00
5286;DHT22;2665;53.112;7.358;2023-04-30T05:20:26;3.50;1.00
5286;DHT22;2665;53.112;7.358;2023-04-30T05:22:52;3.50;1.00
5286;DHT22;2665;53.112;7.358;2023-04-30T05:25:17;3.60;1.00
5286;DHT22;2665;53.112;7.358;2023-04-30T05:27:43;3.60;1.00
5286;DHT22;2665;53.112;7.358;2023-04-30T05:30:09;3.60;99.90
5286;DHT22;2665;53.112;7.358;2023-04-30T05:32:35;3.70;1.00
5286;DHT22;2665;53.112;7.358;2023-04-30T05:35:00;3.80;37.40
5286;DHT22;2665;53.112;7.358;2023-04-30T05:37:26;3.90;99.90
5286;DHT22;2665;53.112;7.358;2023-04-30T05:39:51;4.00;99.90
5286;DHT22;2665;53.112;7.358;2023-04-30T05:42:20;4.10;99.90
5286;DHT22;2665;53.112;7.358;2023-04-30T05:44:47;4.20;1.00
5286;DHT22;2665;53.112;7.358;2023-04-30T05:47:13;4.40;1.00
5286;DHT22;2665;53.112;7.358;2023-04-30T05:49:39;4.60;99.90
5286;DHT22;2665;53.112;7.358;2023-04-30T05:52:04;4.90;99.90
5286;DHT22;2665;53.112;7.358;2023-04-30T05:54:30;5.10;99.90
5286;DHT22;2665;53.112;7.358;2023-04-30T05:56:56;5.40;99.90
5286;DHT22;2665;53.112;7.358;2023-04-30T05:59:22;5.60;23.00
5286;DHT22;2665;53.112;7.358;2023-04-30T11:09:23;15.90;1.00
5286;DHT22;2665;53.112;7.358;2023-04-30T11:12:03;16.00;3.00
5286;DHT22;2665;53.112;7.358;2023-04-30T11:14:31;16.60;4.50
5286;DHT22;2665;53.112;7.358;2023-04-30T11:16:59;17.90;6.40
5286;DHT22;2665;53.112;7.358;2023-04-30T11:19:26;19.30;6.30
5286;DHT22;2665;53.112;7.358;2023-04-30T11:22:21;20.80;1.00
5286;DHT22;2665;53.112;7.358;2023-04-30T11:25:09;21.40;1.00
5286;DHT22;2665;53.112;7.358;2023-04-30T11:30:08;22.60;1.00
5286;DHT22;2665;53.112;7.358;2023-04-30T11:32:36;23.20;1.00
5286;DHT22;2665;53.112;7.358;2023-04-30T11:35:03;23.70;1.00
5286;DHT22;2665;53.112;7.358;2023-04-30T11:37:36;23.70;1.00
5286;DHT22;2665;53.112;7.358;2023-04-30T11:40:09;23.90;1.00
5286;DHT22;2665;53.112;7.358;2023-04-30T11:42:36;24.10;1.00
5286;DHT22;2665;53.112;7.358;2023-04-30T11:45:08;24.40;1.00
5286;DHT22;2665;53.112;7.358;2023-04-30T11:47:49;24.70;1.00
5286;DHT22;2665;53.112;7.358;2023-04-30T11:50:16;24.70;1.00
5286;DHT22;2665;53.112;7.358;2023-04-30T11:52:48;24.90;1.00
5286;DHT22;2665;53.112;7.358;2023-04-30T11:55:18;25.00;1.00
5286;DHT22;2665;53.112;7.358;2023-04-30T11:57:46;25.10;1.00
5286;DHT22;2665;53.112;7.358;2023-04-30T12:00:16;25.30;1.00
5286;DHT22;2665;53.112;7.358;2023-04-30T12:02:43;25.10;1.00
5286;DHT22;2665;53.112;7.358;2023-04-30T12:05:16;25.00;1.00
5286;DHT22;2665;53.112;7.358;2023-04-30T12:07:50;25.30;1.00
5286;DHT22;2665;53.112;7.358;2023-04-30T12:10:18;25.50;1.00
5286;DHT22;2665;53.112;7.358;2023-04-30T12:12:44;25.80;1.00
5286;DHT22;2665;53.112;7.358;2023-04-30T12:15:15;25.70;1.00
5286;DHT22;2665;53.112;7.358;2023-04-30T12:17:42;25.70;1.00
5286;DHT22;2665;53.112;7.358;2023-04-30T12:20:09;25.60;1.00
5286;DHT22;2665;53.112;7.358;2023-04-30T12:22:35;25.70;1.00
5286;DHT22;2665;53.112;7.358;2023-04-30T12:25:11;25.80;1.00
5286;DHT22;2665;53.112;7.358;2023-04-30T12:27:39;26.10;1.00
5286;DHT22;2665;53.112;7.358;2023-04-30T12:30:06;26.30;1.00
5286;DHT22;2665;53.112;7.358;2023-04-30T12:32:42;26.30;1.00
5286;DHT22;2665;53.112;7.358;2023-04-30T12:35:13;26.20;1.00
5286;DHT22;2665;53.112;7.358;2023-04-30T12:38:04;26.10;1.00
5286;DHT22;2665;53.112;7.358;2023-04-30T12:40:29;26.00;1.00
5286;DHT22;2665;53.112;7.358;2023-04-30T12:43:06;26.00;1.00
5286;DHT22;2665;53.112;7.358;2023-04-30T12:46:01;25.60;1.00
5286;DHT22;2665;53.112;7.358;2023-04-30T12:48:27;25.50;1.00
5286;DHT22;2665;53.112;7.358;2023-04-30T12:50:59;25.90;1.00
5286;DHT22;2665;53.112;7.358;2023-04-30T12:53:26;26.20;1.00
5286;DHT22;2665;53.112;7.358;2023-04-30T12:56:15;26.40;1.00
5286;DHT22;2665;53.112;7.358;2023-04-30T12:58:46;26.50;1.00
5286;DHT22;2665;53.112;7.358;2023-04-30T13:01:20;26.50;1.00
5286;DHT22;2665;53.112;7.358;2023-04-30T13:03:48;26.40;1.00
5286;DHT22;2665;53.112;7.358;2023-04-30T13:06:14;26.50;1.00
5286;DHT22;2665;53.112;7.358;2023-04-30T13:08:39;26.40;1.00
5286;DHT22;2665;53.112;7.358;2023-04-30T13:11:05;26.30;1.00
5286;DHT22;2665;53.112;7.358;2023-04-30T13:15:57;25.80;1.00
5286;DHT22;2665;53.112;7.358;2023-04-30T13:18:22;25.30;1.00
5286;DHT22;2665;53.112;7.358;2023-04-30T13:20:48;25.30;1.00
5286;DHT22;2665;53.112;7.358;2023-04-30T13:23:13;25.40;1.00
5286;DHT22;2665;53.112;7.358;2023-04-30T13:25:40;25.70;1.00
5286;DHT22;2665;53.112;7.358;2023-04-30T13:28:06;25.70;1.00
5286;DHT22;2665;53.112;7.358;2023-04-30T13:30:32;25.90;1.00
5286;DHT22;2665;53.112;7.358;2023-04-30T13:32:58;26.00;1.00
5286;DHT22;2665;53.112;7.358;2023-04-30T13:35:24;26.10;1.00
5286;DHT22;2665;53.112;7.358;2023-04-30T13:37:51;26.40;1.00
5286;DHT22;2665;53.112;7.358;2023-04-30T13:40:20;26.70;1.00
5286;DHT22;2665;53.112;7.358;2023-04-30T13:42:46;26.90;1.00
5286;DHT22;2665;53.112;7.358;2023-04-30T13:45:12;26.90;1.00
5286;DHT22;2665;53.112;7.358;2023-04-30T13:47:38;26.90;1.00
5286;DHT22;2665;53.112;7.358;2023-04-30T13:50:04;26.50;1.00
5286;DHT22;2665;53.112;7.358;2023-04-30T13:52:31;26.60;1.00
5286;DHT22;2665;53.112;7.358;2023-04-30T13:54:56;26.50;1.00
5286;DHT22;2665;53.112;7.358;2023-04-30T13:57:23;26.50;1.00
5286;DHT22;2665;53.112;7.358;2023-04-30T13:59:49;26.70;1.00
5286;DHT22;2665;53.112;7.358;2023-04-30T14:02:14;26.60;1.00
5286;DHT22;2665;53.112;7.358;2023-04-30T14:04:40;26.50;1.00
5286;DHT22;2665;53.112;7.358;2023-04-30T14:07:06;26.40;1.00
5286;DHT22;2665;53.112;7.358;2023-04-30T14:09:32;26.50;1.00
5286;DHT22;2665;53.112;7.358;2023-04-30T14:11:57;26.90;1.00
5286;DHT22;2665;53.112;7.358;2023-04-30T14:14:24;26.90;1.00
5286;DHT22;2665;53.112;7.358;2023-04-30T14:16:50;27.30;1.00
5286;DHT22;2665;53.112;7.358;2023-04-30T14:19:16;27.40;1.00
5286;DHT22;2665;53.112;7.358;2023-04-30T14:21:42;27.40;1.00
5286;DHT22;2665;53.112;7.358;2023-04-30T14:24:08;27.40;1.00
5286;DHT22;2665;53.112;7.358;2023-04-30T14:26:34;27.60;1.00
5286;DHT22;2665;53.112;7.358;2023-04-30T14:29:00;27.60;1.00
5286;DHT22;2665;53.112;7.358;2023-04-30T14:31:26;27.50;1.00
5286;DHT22;2665;53.112;7.358;2023-04-30T14:33:51;27.30;1.00
5286;DHT22;2665;53.112;7.358;2023-04-30T14:36:18;27.10;1.00
5286;DHT22;2665;53.112;7.358;2023-04-30T14:38:44;27.00;1.00
5286;DHT22;2665;53.112;7.358;2023-04-30T14:41:11;27.30;1.00
5286;DHT22;2665;53.112;7.358;2023-04-30T14:43:37;27.30;1.00
5286;DHT22;2665;53.112;7.358;2023-04-30T14:46:02;27.20;1.00
5286;DHT22;2665;53.112;7.358;2023-04-30T14:48:28;27.40;1.00
5286;DHT22;2665;53.112;7.358;2023-04-30T14:50:54;27.50;1.00
5286;DHT22;2665;53.112;7.358;2023-04-30T14:53:19;27.50;1.00
5286;DHT22;2665;53.112;7.358;2023-04-30T14:55:45;27.40;1.00
5286;DHT22;2665;53.112;7.358;2023-04-30T14:58:11;27.50;1.00
5286;DHT22;2665;53.112;7.358;2023-04-30T15:00:36;27.60;1.00
5286;DHT22;2665;53.112;7.358;2023-04-30T15:03:02;27.70;1.00
5286;DHT22;2665;53.112;7.358;2023-04-30T15:05:28;27.90;1.00
5286;DHT22;2665;53.112;7.358;2023-04-30T15:07:53;28.10;1.00
5286;DHT22;2665;53.112;7.358;2023-04-30T15:10:19;28.40;1.00
5286;DHT22;2665;53.112;7.358;2023-04-30T15:12:45;28.60;1.00
5286;DHT22;2665;53.112;7.358;2023-04-30T15:15:10;28.70;1.00
5286;DHT22;2665;53.112;7.358;2023-04-30T15:17:36;28.60;1.00
5286;DHT22;2665;53.112;7.358;2023-04-30T15:20:03;28.30;1.00
5286;DHT22;2665;53.112;7.358;2023-04-30T15:22:29;28.20;1.00
5286;DHT22;2665;53.112;7.358;2023-04-30T15:24:54;28.60;1.00
5286;DHT22;2665;53.112;7.358;2023-04-30T15:27:24;28.80;1.00
5286;DHT22;2665;53.112;7.358;2023-04-30T15:29:51;29.10;1.00
5286;DHT22;2665;53.112;7.358;2023-04-30T15:32:17;28.90;1.00
5286;DHT22;2665;53.112;7.358;2023-04-30T15:34:43;28.80;1.00
5286;DHT22;2665;53.112;7.358;2023-04-30T15:37:09;28.60;1.00
5286;DHT22;2665;53.112;7.358;2023-04-30T15:39:35;28.60;1.00
5286;DHT22;2665;53.112;7.358;2023-04-30T15:42:01;28.70;1.00
5286;DHT22;2665;53.112;7.358;2023-04-30T15:44:27;28.70;1.00
5286;DHT22;2665;53.112;7.358;2023-04-30T15:46:53;28.50;1.00
5286;DHT22;2665;53.112;7.358;2023-04-30T15:49:19;28.10;1.00
5286;DHT22;2665;53.112;7.358;2023-04-30T15:51:45;27.90;1.00
5286;DHT22;2665;53.112;7.358;2023-04-30T15:54:11;27.80;1.00
5286;DHT22;2665;53.112;7.358;2023-04-30T15:56:37;27.60;1.00
5286;DHT22;2665;53.112;7.358;2023-04-30T15:59:04;27.60;1.00
5286;DHT22;2665;53.112;7.358;2023-04-30T16:01:30;27.60;1.00
5286;DHT22;2665;53.112;7.358;2023-04-30T16:03:56;27.40;1.00
5286;DHT22;2665;53.112;7.358;2023-04-30T16:06:22;27.20;1.00
5286;DHT22;2665;53.112;7.358;2023-04-30T16:08:47;27.20;1.00
5286;DHT22;2665;53.112;7.358;2023-04-30T16:11:14;27.40;1.00
5286;DHT22;2665;53.112;7.358;2023-04-30T16:13:40;27.30;1.00
5286;DHT22;2665;53.112;7.358;2023-04-30T16:16:06;27.40;1.00
5286;DHT22;2665;53.112;7.358;2023-04-30T16:18:33;27.40;1.00
5286;DHT22;2665;53.112;7.358;2023-04-30T16:20:59;27.20;1.00
5286;DHT22;2665;53.112;7.358;2023-04-30T16:23:25;27.10;1.00
5286;DHT22;2665;53.112;7.358;2023-04-30T16:25:51;27.20;1.00
5286;DHT22;2665;53.112;7.358;2023-04-30T16:28:17;27.20;1.00
5286;DHT22;2665;53.112;7.358;2023-04-30T16:30:42;27.00;1.00
5286;DHT22;2665;53.112;7.358;2023-04-30T16:33:08;26.60;1.00
5286;DHT22;2665;53.112;7.358;2023-04-30T16:35:34;26.10;1.00
5286;DHT22;2665;53.112;7.358;2023-04-30T16:37:59;25.90;10.00
5286;DHT22;2665;53.112;7.358;2023-04-30T16:40:26;25.70;1.00
5286;DHT22;2665;53.112;7.358;2023-04-30T16:42:52;25.60;2.20
5286;DHT22;2665;53.112;7.358;2023-04-30T16:45:18;25.50;3.90
5286;DHT22;2665;53.112;7.358;2023-04-30T16:47:44;25.50;5.20
5286;DHT22;2665;53.112;7.358;2023-04-30T16:50:09;25.50;5.90
5286;DHT22;2665;53.112;7.358;2023-04-30T16:52:35;25.20;7.30
5286;DHT22;2665;53.112;7.358;2023-04-30T16:55:01;25.00;9.00
5286;DHT22;2665;53.112;7.358;2023-04-30T16:57:26;25.00;10.90
5286;DHT22;2665;53.112;7.358;2023-04-30T16:59:52;25.10;13.10
5286;DHT22;2665;53.112;7.358;2023-04-30T17:02:18;25.20;14.60
5286;DHT22;2665;53.112;7.358;2023-04-30T17:04:43;24.90;15.00
5286;DHT22;2665;53.112;7.358;2023-04-30T17:07:09;24.70;16.50
5286;DHT22;2665;53.112;7.358;2023-04-30T17:09:36;24.50;18.20
5286;DHT22;2665;53.112;7.358;2023-04-30T17:12:02;24.50;19.80
5286;DHT22;2665;53.112;7.358;2023-04-30T17:14:29;24.30;21.10
5286;DHT22;2665;53.112;7.358;2023-04-30T17:16:55;24.30;22.80
5286;DHT22;2665;53.112;7.358;2023-04-30T17:19:21;24.30;24.50
5286;DHT22;2665;53.112;7.358;2023-04-30T17:21:49;24.40;26.00
5286;DHT22;2665;53.112;7.358;2023-04-30T17:24:15;24.20;26.70
5286;DHT22;2665;53.112;7.358;2023-04-30T17:26:40;24.00;28.00
5286;DHT22;2665;53.112;7.358;2023-04-30T17:29:06;23.90;30.00
5286;DHT22;2665;53.112;7.358;2023-04-30T17:31:32;23.60;30.20
5286;DHT22;2665;53.112;7.358;2023-04-30T17:33:57;23.10;32.30
5286;DHT22;2665;53.112;7.358;2023-04-30T17:36:24;22.60;35.00
5286;DHT22;2665;53.112;7.358;2023-04-30T17:38:52;22.20;39.00
5286;DHT22;2665;53.112;7.358;2023-04-30T17:41:18;21.90;41.40
5286;DHT22;2665;53.112;7.358;2023-04-30T17:43:44;21.50;43.70
5286;DHT22;2665;53.112;7.358;2023-04-30T17:46:10;21.10;47.00
5286;DHT22;2665;53.112;7.358;2023-04-30T17:48:36;20.50;50.20
5286;DHT22;2665;53.112;7.358;2023-04-30T17:51:01;19.90;53.30
5286;DHT22;2665;53.112;7.358;2023-04-30T17:53:27;19.50;56.60
5286;DHT22;2665;53.112;7.358;2023-04-30T17:55:53;19.20;60.20
5286;DHT22;2665;53.112;7.358;2023-04-30T17:58:19;18.90;63.40
5286;DHT22;2665;53.112;7.358;2023-04-30T18:00:44;18.70;67.70
5286;DHT22;2665;53.112;7.358;2023-04-30T18:03:10;18.50;71.40
5286;DHT22;2665;53.112;7.358;2023-04-30T18:05:36;18.40;73.50
5286;DHT22;2665;53.112;7.358;2023-04-30T18:08:03;18.20;77.70
5286;DHT22;2665;53.112;7.358;2023-04-30T18:10:29;17.90;78.80
5286;DHT22;2665;53.112;7.358;2023-04-30T18:12:57;17.70;82.80
5286;DHT22;2665;53.112;7.358;2023-04-30T18:15:23;17.50;85.70
5286;DHT22;2665;53.112;7.358;2023-04-30T18:17:49;17.20;88.80
5286;DHT22;2665;53.112;7.358;2023-04-30T18:20:15;17.00;90.30
5286;DHT22;2665;53.112;7.358;2023-04-30T18:22:41;16.80;92.10
5286;DHT22;2665;53.112;7.358;2023-04-30T18:25:09;16.50;92.90
5286;DHT22;2665;53.112;7.358;2023-04-30T18:27:35;16.30;94.30
5286;DHT22;2665;53.112;7.358;2023-04-30T18:30:00;16.10;95.60
5286;DHT22;2665;53.112;7.358;2023-04-30T18:32:27;15.90;97.50
5286;DHT22;2665;53.112;7.358;2023-04-30T18:34:53;15.70;97.90
5286;DHT22;2665;53.112;7.358;2023-04-30T18:37:18;15.50;99.60
5286;DHT22;2665;53.112;7.358;2023-04-30T18:39:45;15.40;99.90
5286;DHT22;2665;53.112;7.358;2023-04-30T18:42:11;15.20;99.90
5286;DHT22;2665;53.112;7.358;2023-04-30T18:44:36;15.10;99.90
5286;DHT22;2665;53.112;7.358;2023-04-30T18:47:02;14.90;99.90
5286;DHT22;2665;53.112;7.358;2023-04-30T18:49:28;14.80;99.90
5286;DHT22;2665;53.112;7.358;2023-04-30T18:51:54;14.70;99.90
5286;DHT22;2665;53.112;7.358;2023-04-30T18:54:20;14.60;99.90
5286;DHT22;2665;53.112;7.358;2023-04-30T18:56:46;14.50;99.90
5286;DHT22;2665;53.112;7.358;2023-04-30T18:59:12;14.30;99.90
5286;DHT22;2665;53.112;7.358;2023-04-30T19:01:39;14.20;99.90
5286;DHT22;2665;53.112;7.358;2023-04-30T19:04:05;14.10;99.90
5286;DHT22;2665;53.112;7.358;2023-04-30T19:06:30;14.00;99.90
5286;DHT22;2665;53.112;7.358;2023-04-30T19:08:57;13.90;99.90
5286;DHT22;2665;53.112;7.358;2023-04-30T19:11:24;13.80;99.90
5286;DHT22;2665;53.112;7.358;2023-04-30T19:13:50;13.70;99.90
5286;DHT22;2665;53.112;7.358;2023-04-30T19:16:16;13.60;99.90
5286;DHT22;2665;53.112;7.358;2023-04-30T19:18:42;13.50;99.90
5286;DHT22;2665;53.112;7.358;2023-04-30T19:21:08;13.50;99.90
5286;DHT22;2665;53.112;7.358;2023-04-30T19:23:34;13.40;99.90
5286;DHT22;2665;53.112;7.358;2023-04-30T19:26:00;13.30;99.90
5286;DHT22;2665;53.112;7.358;2023-04-30T19:28:26;13.20;99.90
5286;DHT22;2665;53.112;7.358;2023-04-30T19:30:53;13.10;99.90
5286;DHT22;2665;53.112;7.358;2023-04-30T19:33:22;13.00;99.90
5286;DHT22;2665;53.112;7.358;2023-04-30T19:35:51;12.90;99.90
5286;DHT22;2665;53.112;7.358;2023-04-30T19:38:22;12.80;99.90
5286;DHT22;2665;53.112;7.358;2023-04-30T19:40:50;12.70;99.90
5286;DHT22;2665;53.112;7.358;2023-04-30T19:43:22;12.60;99.90
5286;DHT22;2665;53.112;7.358;2023-04-30T19:45:53;12.40;99.90
5286;DHT22;2665;53.112;7.358;2023-04-30T19:48:19;12.30;99.90
5286;DHT22;2665;53.112;7.358;2023-04-30T19:50:47;12.10;99.90
5286;DHT22;2665;53.112;7.358;2023-04-30T19:53:14;12.00;99.90
5286;DHT22;2665;53.112;7.358;2023-04-30T19:55:40;11.80;99.90
5286;DHT22;2665;53.112;7.358;2023-04-30T19:58:06;11.80;99.90
5286;DHT22;2665;53.112;7.358;2023-04-30T20:00:35;11.60;99.90
5286;DHT22;2665;53.112;7.358;2023-04-30T20:03:02;11.50;99.90
5286;DHT22;2665;53.112;7.358;2023-04-30T20:05:36;11.40;99.90
5286;DHT22;2665;53.112;7.358;2023-04-30T20:08:03;11.40;99.90
5286;DHT22;2665;53.112;7.358;2023-04-30T20:10:30;11.30;99.90
5286;DHT22;2665;53.112;7.358;2023-04-30T20:12:55;11.20;99.90
5286;DHT22;2665;53.112;7.358;2023-04-30T20:15:21;11.10;99.90
5286;DHT22;2665;53.112;7.358;2023-04-30T20:17:49;11.10;99.90
5286;DHT22;2665;53.112;7.358;2023-04-30T20:20:15;11.00;99.90
5286;DHT22;2665;53.112;7.358;2023-04-30T20:22:41;10.90;99.90
5286;DHT22;2665;53.112;7.358;2023-04-30T20:25:07;10.90;99.90
5286;DHT22;2665;53.112;7.358;2023-04-30T20:27:34;10.80;99.90
5286;DHT22;2665;53.112;7.358;2023-04-30T20:30:00;10.80;99.90
5286;DHT22;2665;53.112;7.358;2023-04-30T20:32:27;10.70;99.90
5286;DHT22;2665;53.112;7.358;2023-04-30T20:34:53;10.70;99.90
5286;DHT22;2665;53.112;7.358;2023-04-30T20:37:18;10.60;99.90
5286;DHT22;2665;53.112;7.358;2023-04-30T20:39:44;10.60;99.90
5286;DHT22;2665;53.112;7.358;2023-04-30T20:42:10;10.50;99.90
5286;DHT22;2665;53.112;7.358;2023-04-30T20:44:35;10.50;99.90
5286;DHT22;2665;53.112;7.358;2023-04-30T20:47:02;10.40;99.90
5286;DHT22;2665;53.112;7.358;2023-04-30T20:49:30;10.30;99.90
5286;DHT22;2665;53.112;7.358;2023-04-30T20:51:56;10.20;99.90
5286;DHT22;2665;53.112;7.358;2023-04-30T20:54:21;10.20;99.90
5286;DHT22;2665;53.112;7.358;2023-04-30T20:56:47;10.10;99.90
5286;DHT22;2665;53.112;7.358;2023-04-30T20:59:13;10.00;99.90
5286;DHT22;2665;53.112;7.358;2023-04-30T21:01:39;9.90;99.90
5286;DHT22;2665;53.112;7.358;2023-04-30T21:04:05;9.90;99.90
5286;DHT22;2665;53.112;7.358;2023-04-30T21:06:32;9.80;99.90
5286;DHT22;2665;53.112;7.358;2023-04-30T21:08:58;9.80;99.90
5286;DHT22;2665;53.112;7.358;2023-04-30T21:11:24;9.70;99.90
5286;DHT22;2665;53.112;7.358;2023-04-30T21:13:50;9.70;99.90
5286;DHT22;2665;53.112;7.358;2023-04-30T21:16:16;9.60;99.90
5286;DHT22;2665;53.112;7.358;2023-04-30T21:18:42;9.60;99.90
5286;DHT22;2665;53.112;7.358;2023-04-30T21:21:08;9.50;99.90
5286;DHT22;2665;53.112;7.358;2023-04-30T21:23:35;9.50;99.90
5286;DHT22;2665;53.112;7.358;2023-04-30T21:26:00;9.40;99.90
5286;DHT22;2665;53.112;7.358;2023-04-30T21:28:26;9.40;99.90
5286;DHT22;2665;53.112;7.358;2023-04-30T21:30:52;9.40;99.90
5286;DHT22;2665;53.112;7.358;2023-04-30T21:33:18;9.40;99.90
5286;DHT22;2665;53.112;7.358;2023-04-30T21:35:43;9.30;99.90
5286;DHT22;2665;53.112;7.358;2023-04-30T21:38:09;9.30;99.90
5286;DHT22;2665;53.112;7.358;2023-04-30T21:40:38;9.20;99.90
5286;DHT22;2665;53.112;7.358;2023-04-30T21:43:05;9.20;99.90
5286;DHT22;2665;53.112;7.358;2023-04-30T21:45:33;9.10;99.90
5286;DHT22;2665;53.112;7.358;2023-04-30T21:47:59;9.00;99.90
5286;DHT22;2665;53.112;7.358;2023-04-30T21:50:25;8.90;99.90
5286;DHT22;2665;53.112;7.358;2023-04-30T21:52:51;8.90;99.90
5286;DHT22;2665;53.112;7.358;2023-04-30T21:55:16;8.90;99.90
5286;DHT22;2665;53.112;7.358;2023-04-30T21:57:42;8.90;99.90
5286;DHT22;2665;53.112;7.358;2023-04-30T22:00:08;8.80;99.90
5286;DHT22;2665;53.112;7.358;2023-04-30T22:02:41;8.80;99.90
5286;DHT22;2665;53.112;7.358;2023-04-30T22:05:07;8.70;99.90
5286;DHT22;2665;53.112;7.358;2023-04-30T22:07:33;8.70;99.90
5286;DHT22;2665;53.112;7.358;2023-04-30T22:09:59;8.60;99.90
5286;DHT22;2665;53.112;7.358;2023-04-30T22:12:24;8.60;99.90
5286;DHT22;2665;53.112;7.358;2023-04-30T22:14:53;8.60;99.90
5286;DHT22;2665;53.112;7.358;2023-04-30T22:17:19;8.60;99.90
5286;DHT22;2665;53.112;7.358;2023-04-30T22:19:46;8.60;99.90
5286;DHT22;2665;53.112;7.358;2023-04-30T22:22:11;8.50;99.90
5286;DHT22;2665;53.112;7.358;2023-04-30T22:24:37;8.50;99.90
5286;DHT22;2665;53.112;7.358;2023-04-30T22:27:02;8.50;99.90
5286;DHT22;2665;53.112;7.358;2023-04-30T22:29:29;8.50;99.90
5286;DHT22;2665;53.112;7.358;2023-04-30T22:31:55;8.40;99.90
5286;DHT22;2665;53.112;7.358;2023-04-30T22:34:21;8.40;99.90
5286;DHT22;2665;53.112;7.358;2023-04-30T22:36:48;8.40;99.90
5286;DHT22;2665;53.112;7.358;2023-04-30T22:39:14;8.40;99.90
5286;DHT22;2665;53.112;7.358;2023-04-30T22:41:40;8.40;99.90
5286;DHT22;2665;53.112;7.358;2023-04-30T22:44:11;8.40;99.90
5286;DHT22;2665;53.112;7.358;2023-04-30T22:46:37;8.30;99.90
5286;DHT22;2665;53.112;7.358;2023-04-30T22:49:06;8.30;99.90
5286;DHT22;2665;53.112;7.358;2023-04-30T22:51:32;8.20;99.90
5286;DHT22;2665;53.112;7.358;2023-04-30T22:54:00;8.20;99.90
5286;DHT22;2665;53.112;7.358;2023-04-30T22:56:26;8.10;99.90
5286;DHT22;2665;53.112;7.358;2023-04-30T22:58:52;8.10;99.90
5286;DHT22;2665;53.112;7.358;2023-04-30T23:01:18;8.00;99.90
5286;DHT22;2665;53.112;7.358;2023-04-30T23:03:44;7.90;99.90
5286;DHT22;2665;53.112;7.358;2023-04-30T23:06:10;7.90;99.90
5286;DHT22;2665;53.112;7.358;2023-04-30T23:08:36;7.80;99.90
5286;DHT22;2665;53.112;7.358;2023-04-30T23:11:01;7.80;99.90
5286;DHT22;2665;53.112;7.358;2023-04-30T23:13:29;7.80;99.90
5286;DHT22;2665;53.112;7.358;2023-04-30T23:15:58;7.80;99.90
5286;DHT22;2665;53.112;7.358;2023-04-30T23:18:26;7.70;99.90
5286;DHT22;2665;53.112;7.358;2023-04-30T23:20:55;7.70;99.90
5286;DHT22;2665;53.112;7.358;2023-04-30T23:23:24;7.70;99.90
5286;DHT22;2665;53.112;7.358;2023-04-30T23:25:50;7.70;99.90
5286;DHT22;2665;53.112;7.358;2023-04-30T23:28:16;7.70;99.90
5286;DHT22;2665;53.112;7.358;2023-04-30T23:30:42;7.70;99.90
5286;DHT22;2665;53.112;7.358;2023-04-30T23:33:09;7.70;99.90
5286;DHT22;2665;53.112;7.358;2023-04-30T23:35:35;7.60;99.90
5286;DHT22;2665;53.112;7.358;2023-04-30T23:38:01;7.60;99.90
5286;DHT22;2665;53.112;7.358;2023-04-30T23:40:26;7.60;99.90
5286;DHT22;2665;53.112;7.358;2023-04-30T23:42:52;7.60;99.90
5286;DHT22;2665;53.112;7.358;2023-04-30T23:45:17;7.60;99.90
5286;DHT22;2665;53.112;7.358;2023-04-30T23:47:45;7.50;99.90
5286;DHT22;2665;53.112;7.358;2023-04-30T23:50:10;7.50;99.90
5286;DHT22;2665;53.112;7.358;2023-04-30T23:52:36;7.60;99.90
5286;DHT22;2665;53.112;7.358;2023-04-30T23:55:02;7.50;99.90
5286;DHT22;2665;53.112;7.358;2023-04-30T23:57:28;7.50;99.90
5286;DHT22;2665;53.112;7.358;2023-04-30T23:59:54;7.50;99.90
